createdAt,value
2018-07-07T00:02:14.194Z,98292.00
2018-07-07T00:04:46.032Z,98296.00
2018-07-07T00:07:17.922Z,98300.00
2018-07-07T00:09:49.581Z,98301.00
2018-07-07T00:12:21.433Z,98305.00
2018-07-07T00:14:53.195Z,98314.00
2018-07-07T00:17:24.953Z,98314.00
2018-07-07T00:19:56.712Z,98316.00
2018-07-07T00:22:28.618Z,98312.00
2018-07-07T00:25:00.518Z,98312.00
2018-07-07T00:27:32.213Z,98311.00
2018-07-07T00:30:03.963Z,98314.00
2018-07-07T00:32:35.789Z,98313.00
2018-07-07T00:35:07.806Z,98311.00
2018-07-07T00:37:39.536Z,98313.00
2018-07-07T00:40:12.103Z,98320.00
2018-07-07T00:42:43.762Z,98316.00
2018-07-07T00:45:15.631Z,98315.00
2018-07-07T00:47:47.362Z,98316.00
2018-07-07T00:50:19.145Z,98320.00
2018-07-07T00:52:50.909Z,98320.00
2018-07-07T00:55:22.640Z,98324.00
2018-07-07T00:57:54.420Z,98327.00
2018-07-07T01:00:31.075Z,98323.00
2018-07-07T01:03:02.865Z,98329.00
2018-07-07T01:05:39.051Z,98330.00
2018-07-07T01:08:10.773Z,98336.00
2018-07-07T01:10:42.699Z,98343.00
2018-07-07T01:13:14.958Z,98342.00
2018-07-07T01:15:46.703Z,98345.00
2018-07-07T01:18:18.329Z,98348.00
2018-07-07T01:20:50.115Z,98345.00
2018-07-07T01:23:21.835Z,98342.00
2018-07-07T01:25:53.633Z,98347.00
2018-07-07T01:28:25.267Z,98348.00
2018-07-07T01:30:57.204Z,98346.00
2018-07-07T01:33:28.957Z,98343.00
2018-07-07T01:36:00.729Z,98349.00
2018-07-07T01:38:32.686Z,98356.00
2018-07-07T01:41:04.551Z,98359.00
2018-07-07T01:43:36.412Z,98360.00
2018-07-07T01:46:08.325Z,98362.00
2018-07-07T01:48:40.177Z,98363.00
2018-07-07T01:51:11.993Z,98365.00
2018-07-07T01:53:43.801Z,98364.00
2018-07-07T01:56:15.516Z,98369.00
2018-07-07T01:58:47.189Z,98365.00
2018-07-07T02:01:19.027Z,98369.00
2018-07-07T02:03:50.910Z,98372.00
2018-07-07T02:06:22.665Z,98369.00
2018-07-07T02:08:54.430Z,98373.00
2018-07-07T02:11:26.374Z,98375.00
2018-07-07T02:13:58.179Z,98376.00
2018-07-07T02:16:29.884Z,98376.00
2018-07-07T02:19:01.901Z,98376.00
2018-07-07T02:21:33.528Z,98376.00
2018-07-07T02:24:05.186Z,98378.00
2018-07-07T02:26:36.945Z,98378.00
2018-07-07T02:29:08.686Z,98382.00
2018-07-07T02:31:40.590Z,98380.00
2018-07-07T02:34:12.438Z,98383.00
2018-07-07T02:36:44.187Z,98381.00
2018-07-07T02:39:15.990Z,98388.00
2018-07-07T02:41:47.986Z,98386.00
2018-07-07T02:44:19.856Z,98385.00
2018-07-07T02:46:51.629Z,98379.00
2018-07-07T02:49:23.389Z,98380.00
2018-07-07T02:51:55.245Z,98384.00
2018-07-07T02:54:27.032Z,98386.00
2018-07-07T02:56:58.748Z,98393.00
2018-07-07T02:59:30.513Z,98389.00
2018-07-07T03:02:02.416Z,98389.00
2018-07-07T03:04:34.072Z,98391.00
2018-07-07T03:07:05.935Z,98397.00
2018-07-07T03:09:37.748Z,98400.00
2018-07-07T03:12:09.520Z,98401.00
2018-07-07T03:14:41.289Z,98401.00
2018-07-07T03:17:13.121Z,98405.00
2018-07-07T03:19:44.885Z,98406.00
2018-07-07T03:22:16.568Z,98411.00
2018-07-07T03:24:48.506Z,98415.00
2018-07-07T03:27:20.190Z,98416.00
2018-07-07T03:29:51.836Z,98413.00
2018-07-07T03:32:23.728Z,98416.00
2018-07-07T03:34:55.416Z,98420.00
2018-07-07T03:37:27.184Z,98423.00
2018-07-07T03:39:59.268Z,98427.00
2018-07-07T03:42:31.048Z,98431.00
2018-07-07T03:45:02.700Z,98431.00
2018-07-07T03:47:34.487Z,98433.00
2018-07-07T03:50:06.213Z,98436.00
2018-07-07T03:52:38.077Z,98434.00
2018-07-07T03:55:10.022Z,98433.00
2018-07-07T03:57:42.089Z,98432.00
2018-07-07T04:00:13.964Z,98437.00
2018-07-07T04:02:45.756Z,98440.00
2018-07-07T04:05:17.490Z,98434.00
2018-07-07T04:07:49.426Z,98435.00
2018-07-07T04:10:21.444Z,98432.00
2018-07-07T04:12:53.315Z,98434.00
2018-07-07T04:15:25.082Z,98436.00
2018-07-07T04:17:57.075Z,98436.00
2018-07-07T04:20:28.888Z,98433.00
2018-07-07T04:23:00.633Z,98430.00
2018-07-07T04:25:32.379Z,98432.00
2018-07-07T04:28:04.115Z,98440.00
2018-07-07T04:30:35.919Z,98431.00
2018-07-07T04:33:07.661Z,98433.00
2018-07-07T04:35:39.382Z,98431.00
2018-07-07T04:38:11.301Z,98430.00
2018-07-07T04:40:43.034Z,98434.00
2018-07-07T04:43:14.964Z,98435.00
2018-07-07T04:45:46.949Z,98429.00
2018-07-07T04:48:18.644Z,98434.00
2018-07-07T04:50:50.376Z,98435.00
2018-07-07T04:53:22.162Z,98436.00
2018-07-07T04:55:53.792Z,98441.00
2018-07-07T04:58:25.449Z,98441.00
2018-07-07T05:00:57.389Z,98444.00
2018-07-07T05:03:29.060Z,98445.00
2018-07-07T05:06:00.817Z,98450.00
2018-07-07T05:08:32.565Z,98448.00
2018-07-07T05:11:04.418Z,98447.00
2018-07-07T05:13:36.332Z,98451.00
2018-07-07T05:16:08.095Z,98451.00
2018-07-07T05:18:39.859Z,98451.00
2018-07-07T05:21:11.920Z,98454.00
2018-07-07T05:23:43.667Z,98454.00
2018-07-07T05:26:15.303Z,98456.00
2018-07-07T05:28:47.196Z,98455.00
2018-07-07T05:31:18.926Z,98455.00
2018-07-07T05:33:50.694Z,98451.00
2018-07-07T05:36:22.527Z,98452.00
2018-07-07T05:38:54.406Z,98450.00
2018-07-07T05:41:26.301Z,98454.00
2018-07-07T05:43:57.938Z,98456.00
2018-07-07T05:46:29.765Z,98459.00
2018-07-07T05:49:01.676Z,98456.00
2018-07-07T05:51:33.293Z,98453.00
2018-07-07T05:54:05.080Z,98452.00
2018-07-07T05:56:37.005Z,98454.00
2018-07-07T05:59:09.020Z,98454.00
2018-07-07T06:01:40.777Z,98448.00
2018-07-07T06:04:12.470Z,98447.00
2018-07-07T06:06:44.454Z,98453.00
2018-07-07T06:09:16.650Z,98449.00
2018-07-07T06:11:48.303Z,98444.00
2018-07-07T06:14:20.013Z,98448.00
2018-07-07T06:16:51.843Z,98450.00
2018-07-07T06:19:23.566Z,98449.00
2018-07-07T06:21:55.359Z,98450.00
2018-07-07T06:24:27.077Z,98447.00
2018-07-07T06:26:59.145Z,98452.00
2018-07-07T06:29:30.819Z,98453.00
2018-07-07T06:32:02.677Z,98449.00
2018-07-07T06:34:34.505Z,98447.00
2018-07-07T06:37:06.388Z,98450.00
2018-07-07T06:39:38.187Z,98456.00
2018-07-07T06:42:09.922Z,98453.00
2018-07-07T06:44:41.653Z,98457.00
2018-07-07T06:47:13.563Z,98457.00
2018-07-07T06:49:45.301Z,98452.00
2018-07-07T06:52:17.242Z,98450.00
2018-07-07T06:54:49.108Z,98451.00
2018-07-07T06:57:20.869Z,98450.00
2018-07-07T06:59:52.518Z,98451.00
2018-07-07T07:02:24.367Z,98448.00
2018-07-07T07:04:56.117Z,98450.00
2018-07-07T07:07:27.927Z,98440.00
2018-07-07T07:09:59.659Z,98445.00
2018-07-07T07:12:31.409Z,98443.00
2018-07-07T07:15:03.113Z,98446.00
2018-07-07T07:17:34.857Z,98440.00
2018-07-07T07:20:06.741Z,98442.00
2018-07-07T07:22:37.820Z,98438.00
2018-07-07T07:25:09.609Z,98438.00
2018-07-07T07:27:41.381Z,98437.00
2018-07-07T07:30:13.161Z,98434.00
2018-07-07T07:32:45.086Z,98436.00
2018-07-07T07:35:16.943Z,98436.00
2018-07-07T07:37:48.794Z,98436.00
2018-07-07T07:40:20.601Z,98431.00
2018-07-07T07:42:53.386Z,98430.00
2018-07-07T07:45:25.008Z,98426.00
2018-07-07T07:47:56.876Z,98432.00
2018-07-07T07:50:28.764Z,98427.00
2018-07-07T07:53:00.525Z,98422.00
2018-07-07T07:55:32.213Z,98421.00
2018-07-07T07:58:04.041Z,98426.00
2018-07-07T08:00:35.735Z,98424.00
2018-07-07T08:03:07.721Z,98426.00
2018-07-07T08:05:39.528Z,98428.00
2018-07-07T08:08:11.357Z,98423.00
2018-07-07T08:10:43.092Z,98418.00
2018-07-07T08:13:14.853Z,98417.00
2018-07-07T08:15:46.640Z,98413.00
2018-07-07T08:18:18.289Z,98407.00
2018-07-07T08:20:50.290Z,98409.00
2018-07-07T08:23:22.119Z,98410.00
2018-07-07T08:25:53.969Z,98404.00
2018-07-07T08:28:25.751Z,98405.00
2018-07-07T08:30:57.625Z,98405.00
2018-07-07T08:33:29.390Z,98410.00
2018-07-07T08:36:01.215Z,98403.00
2018-07-07T08:38:32.949Z,98409.00
2018-07-07T08:41:04.853Z,98406.00
2018-07-07T08:43:36.668Z,98409.00
2018-07-07T08:46:08.348Z,98405.00
2018-07-07T08:48:40.933Z,98408.00
2018-07-07T08:51:12.656Z,98401.00
2018-07-07T08:53:44.350Z,98404.00
2018-07-07T08:56:16.015Z,98401.00
2018-07-07T08:58:47.762Z,98403.00
2018-07-07T09:01:19.600Z,98397.00
2018-07-07T09:03:51.376Z,98395.00
2018-07-07T09:06:23.039Z,98396.00
2018-07-07T09:08:54.898Z,98391.00
2018-07-07T09:11:26.692Z,98392.00
2018-07-07T09:13:58.493Z,98391.00
2018-07-07T09:16:30.323Z,98383.00
2018-07-07T09:19:02.025Z,98379.00
2018-07-07T09:21:33.793Z,98392.00
2018-07-07T09:24:05.737Z,98386.00
2018-07-07T09:26:37.608Z,98385.00
2018-07-07T09:29:09.311Z,98388.00
2018-07-07T09:31:41.241Z,98383.00
2018-07-07T09:34:13.122Z,98383.00
2018-07-07T09:36:44.874Z,98378.00
2018-07-07T09:39:16.527Z,98381.00
2018-07-07T09:41:48.349Z,98378.00
2018-07-07T09:44:20.014Z,98366.00
2018-07-07T09:46:51.901Z,98376.00
2018-07-07T09:49:23.741Z,98378.00
2018-07-07T09:51:55.527Z,98368.00
2018-07-07T09:54:27.180Z,98375.00
2018-07-07T09:56:59.010Z,98375.00
2018-07-07T09:59:30.689Z,98374.00
2018-07-07T10:02:02.601Z,98367.00
2018-07-07T10:04:34.544Z,98368.00
2018-07-07T10:07:06.331Z,98361.00
2018-07-07T10:09:38.233Z,98364.00
2018-07-07T10:12:09.969Z,98360.00
2018-07-07T10:14:41.692Z,98361.00
2018-07-07T10:17:13.629Z,98363.00
2018-07-07T10:19:45.453Z,98363.00
2018-07-07T10:22:17.137Z,98368.00
2018-07-07T10:24:48.890Z,98361.00
2018-07-07T10:27:20.838Z,98367.00
2018-07-07T10:29:52.613Z,98352.00
2018-07-07T10:32:24.272Z,98356.00
2018-07-07T10:34:56.101Z,98355.00
2018-07-07T10:37:27.791Z,98356.00
2018-07-07T10:39:59.556Z,98356.00
2018-07-07T10:42:31.279Z,98357.00
2018-07-07T10:45:03.166Z,98350.00
2018-07-07T10:47:34.917Z,98351.00
2018-07-07T10:50:06.796Z,98343.00
2018-07-07T10:52:38.633Z,98344.00
2018-07-07T10:55:10.390Z,98344.00
2018-07-07T10:57:42.198Z,98337.00
2018-07-07T11:00:14.035Z,98341.00
2018-07-07T11:02:45.809Z,98333.00
2018-07-07T11:05:17.553Z,98341.00
2018-07-07T11:07:49.336Z,98343.00
2018-07-07T11:10:20.957Z,98331.00
2018-07-07T11:12:52.808Z,98343.00
2018-07-07T11:15:24.481Z,98338.00
2018-07-07T11:17:56.249Z,98338.00
2018-07-07T11:20:28.127Z,98334.00
2018-07-07T11:22:59.861Z,98333.00
2018-07-07T11:25:31.520Z,98331.00
2018-07-07T11:28:03.307Z,98334.00
2018-07-07T11:30:35.167Z,98334.00
2018-07-07T11:33:06.384Z,98320.00
2018-07-07T11:35:38.022Z,98321.00
2018-07-07T11:38:09.899Z,98324.00
2018-07-07T11:40:41.841Z,98325.00
2018-07-07T11:43:13.705Z,98322.00
2018-07-07T11:45:45.514Z,98321.00
2018-07-07T11:48:17.246Z,98315.00
2018-07-07T11:50:48.988Z,98308.00
2018-07-07T11:53:20.653Z,98310.00
2018-07-07T11:55:52.428Z,98322.00
2018-07-07T11:58:24.254Z,98309.00
2018-07-07T12:00:56.046Z,98303.00
2018-07-07T12:03:27.668Z,98297.00
2018-07-07T12:05:59.434Z,98293.00
2018-07-07T12:08:31.259Z,98290.00
2018-07-07T12:11:03.099Z,98288.00
2018-07-07T12:13:35.066Z,98284.00
2018-07-07T12:16:06.864Z,98282.00
2018-07-07T12:18:38.766Z,98278.00
2018-07-07T12:21:10.701Z,98273.00
2018-07-07T12:23:42.670Z,98284.00
2018-07-07T12:26:14.534Z,98284.00
2018-07-07T12:28:46.205Z,98276.00
2018-07-07T12:31:18.100Z,98277.00
2018-07-07T12:33:50.104Z,98264.00
2018-07-07T12:36:21.906Z,98266.00
2018-07-07T12:38:53.537Z,98261.00
2018-07-07T12:41:25.391Z,98261.00
2018-07-07T12:43:57.347Z,98252.00
2018-07-07T12:46:29.033Z,98252.00
2018-07-07T12:49:00.794Z,98255.00
2018-07-07T12:51:32.626Z,98261.00
2018-07-07T12:54:04.590Z,98260.00
2018-07-07T12:56:36.375Z,98257.00
2018-07-07T12:59:08.133Z,98254.00
2018-07-07T13:01:39.965Z,98253.00
2018-07-07T13:04:11.770Z,98254.00
2018-07-07T13:06:43.396Z,98254.00
2018-07-07T13:09:15.271Z,98251.00
2018-07-07T13:11:47.105Z,98246.00
2018-07-07T13:14:18.783Z,98241.00
2018-07-07T13:17:07.904Z,98241.00
2018-07-07T13:19:41.455Z,98241.00
2018-07-07T13:22:13.322Z,98240.00
2018-07-07T13:24:45.045Z,98236.00
2018-07-07T13:27:16.818Z,98244.00
2018-07-07T13:29:48.693Z,98230.00
2018-07-07T13:32:20.445Z,98237.00
2018-07-07T13:34:52.393Z,98234.00
2018-07-07T13:37:24.204Z,98235.00
2018-07-07T13:39:55.937Z,98236.00
2018-07-07T13:42:27.774Z,98230.00
2018-07-07T13:44:59.629Z,98229.00
2018-07-07T13:47:31.444Z,98228.00
2018-07-07T13:50:03.176Z,98229.00
2018-07-07T13:52:35.026Z,98228.00
2018-07-07T13:55:06.801Z,98229.00
2018-07-07T13:57:38.549Z,98234.00
2018-07-07T14:00:10.418Z,98235.00
2018-07-07T14:02:42.185Z,98223.00
2018-07-07T14:05:13.942Z,98224.00
2018-07-07T14:07:45.670Z,98221.00
2018-07-07T14:10:17.464Z,98218.00
2018-07-07T14:12:49.214Z,98214.00
2018-07-07T14:15:21.053Z,98216.00
2018-07-07T14:17:52.959Z,98215.00
2018-07-07T14:20:24.689Z,98212.00
2018-07-07T14:22:56.653Z,98212.00
2018-07-07T14:25:28.389Z,98205.00
2018-07-07T14:28:00.186Z,98203.00
2018-07-07T14:30:31.930Z,98214.00
2018-07-07T14:33:03.772Z,98215.00
2018-07-07T14:35:35.636Z,98212.00
2018-07-07T14:38:07.422Z,98206.00
2018-07-07T14:40:45.438Z,98205.00
2018-07-07T14:43:17.351Z,98205.00
2018-07-07T14:46:05.348Z,98199.00
2018-07-07T14:48:37.002Z,98208.00
2018-07-07T14:51:08.944Z,98199.00
2018-07-07T14:53:40.782Z,98201.00
2018-07-07T14:56:12.529Z,98201.00
2018-07-07T14:58:44.551Z,98200.00
2018-07-07T15:01:16.434Z,98199.00
2018-07-07T15:03:48.425Z,98198.00
2018-07-07T15:06:20.239Z,98191.00
2018-07-07T15:08:51.965Z,98195.00
2018-07-07T15:11:23.825Z,98197.00
2018-07-07T15:13:55.725Z,98190.00
2018-07-07T15:16:27.477Z,98186.00
2018-07-07T15:18:59.290Z,98185.00
2018-07-07T15:21:31.155Z,98192.00
2018-07-07T15:24:02.938Z,98186.00
2018-07-07T15:26:34.690Z,98186.00
2018-07-07T15:29:06.638Z,98183.00
2018-07-07T15:31:38.525Z,98187.00
2018-07-07T15:34:10.301Z,98184.00
2018-07-07T15:36:42.139Z,98192.00
2018-07-07T15:39:14.079Z,98177.00
2018-07-07T15:41:46.003Z,98180.00
2018-07-07T15:44:17.816Z,98175.00
2018-07-07T15:46:49.472Z,98176.00
2018-07-07T15:49:21.318Z,98173.00
2018-07-07T15:51:53.001Z,98169.00
2018-07-07T15:54:24.758Z,98169.00
2018-07-07T15:56:56.603Z,98167.00
2018-07-07T15:59:28.261Z,98170.00
2018-07-07T16:02:00.038Z,98168.00
2018-07-07T16:04:31.883Z,98169.00
2018-07-07T16:07:03.734Z,98167.00
2018-07-07T16:09:35.635Z,98162.00
2018-07-07T16:12:07.486Z,98156.00
2018-07-07T16:14:39.445Z,98155.00
2018-07-07T16:17:11.331Z,98156.00
2018-07-07T16:19:43.062Z,98155.00
2018-07-07T16:22:14.786Z,98149.00
2018-07-07T16:24:46.580Z,98147.00
2018-07-07T16:27:18.441Z,98153.00
2018-07-07T16:29:50.275Z,98148.00
2018-07-07T16:32:22.246Z,98146.00
2018-07-07T16:34:54.130Z,98143.00
2018-07-07T16:37:25.684Z,98140.00
2018-07-07T16:39:57.767Z,98141.00
2018-07-07T16:42:29.590Z,98143.00
2018-07-07T16:45:01.958Z,98139.00
2018-07-07T16:47:33.733Z,98136.00
2018-07-07T16:50:05.545Z,98138.00
2018-07-07T16:52:37.444Z,98142.00
2018-07-07T16:55:09.295Z,98134.00
2018-07-07T16:57:41.070Z,98137.00
2018-07-07T17:00:13.746Z,98129.00
2018-07-07T17:02:45.517Z,98133.00
2018-07-07T17:05:17.381Z,98130.00
2018-07-07T17:07:49.762Z,98138.00
2018-07-07T17:10:21.661Z,98136.00
2018-07-07T17:12:53.874Z,98134.00
2018-07-07T17:15:25.832Z,98137.00
2018-07-07T17:17:57.843Z,98131.00
2018-07-07T17:20:29.670Z,98135.00
2018-07-07T17:23:01.932Z,98132.00
2018-07-07T17:25:33.802Z,98131.00
2018-07-07T17:28:05.672Z,98132.00
2018-07-07T17:30:37.711Z,98129.00
2018-07-07T17:33:09.883Z,98125.00
2018-07-07T17:35:41.793Z,98129.00
2018-07-07T17:38:13.613Z,98122.00
2018-07-07T17:40:45.393Z,98126.00
2018-07-07T17:43:17.321Z,98128.00
2018-07-07T17:45:49.500Z,98127.00
2018-07-07T17:48:21.294Z,98123.00
2018-07-07T17:50:53.234Z,98126.00
2018-07-07T17:53:25.179Z,98125.00
2018-07-07T17:55:57.141Z,98122.00
2018-07-07T17:58:29.065Z,98124.00
2018-07-07T18:01:01.256Z,98129.00
2018-07-07T18:03:33.094Z,98131.00
2018-07-07T18:06:05.007Z,98126.00
2018-07-07T18:08:36.861Z,98132.00
2018-07-07T18:11:08.669Z,98124.00
2018-07-07T18:13:40.379Z,98130.00
2018-07-07T18:16:12.233Z,98129.00
2018-07-07T18:18:44.155Z,98127.00
2018-07-07T18:21:15.897Z,98123.00
2018-07-07T18:23:47.830Z,98122.00
2018-07-07T18:26:19.721Z,98128.00
2018-07-07T18:28:51.495Z,98129.00
2018-07-07T18:31:23.126Z,98130.00
2018-07-07T18:33:55.075Z,98131.00
2018-07-07T18:36:27.028Z,98127.00
2018-07-07T18:38:58.695Z,98127.00
2018-07-07T18:41:30.575Z,98128.00
2018-07-07T18:44:02.412Z,98129.00
2018-07-07T18:46:34.369Z,98127.00
2018-07-07T18:49:06.053Z,98131.00
2018-07-07T18:51:37.848Z,98141.00
2018-07-07T18:54:08.984Z,98146.00
2018-07-07T18:56:40.813Z,98152.00
2018-07-07T18:59:12.753Z,98152.00
2018-07-07T19:01:44.557Z,98148.00
2018-07-07T19:04:15.668Z,98151.00
2018-07-07T19:06:47.221Z,98159.00
2018-07-07T19:09:19.101Z,98158.00
2018-07-07T19:11:50.856Z,98158.00
2018-07-07T19:14:22.519Z,98162.00
2018-07-07T19:16:54.269Z,98163.00
2018-07-07T19:19:26.159Z,98166.00
2018-07-07T19:22:02.717Z,98162.00
2018-07-07T19:24:39.170Z,98168.00
2018-07-07T19:27:11.033Z,98169.00
2018-07-07T19:29:42.776Z,98171.00
2018-07-07T19:32:19.601Z,98171.00
2018-07-07T19:34:56.494Z,98175.00
2018-07-07T19:37:28.389Z,98183.00
2018-07-07T19:40:00.154Z,98182.00
2018-07-07T19:42:31.945Z,98191.00
2018-07-07T19:45:03.779Z,98190.00
2018-07-07T19:47:35.734Z,98190.00
2018-07-07T19:50:07.561Z,98192.00
2018-07-07T19:52:39.453Z,98198.00
2018-07-07T19:55:11.432Z,98197.00
2018-07-07T19:57:43.099Z,98204.00
2018-07-07T20:00:15.700Z,98201.00
2018-07-07T20:02:47.468Z,98204.00
2018-07-07T20:05:19.203Z,98202.00
2018-07-07T20:07:51.181Z,98202.00
2018-07-07T20:10:22.918Z,98200.00
2018-07-07T20:12:54.781Z,98204.00
2018-07-07T20:16:40.190Z,98206.00
2018-07-07T20:19:19.379Z,98204.00
2018-07-07T20:21:56.887Z,98201.00
2018-07-07T20:24:34.977Z,98206.00
2018-07-07T20:27:12.171Z,98204.00
2018-07-07T20:29:44.022Z,98204.00
2018-07-07T20:32:20.618Z,98204.00
2018-07-07T20:34:52.360Z,98207.00
2018-07-07T20:37:24.141Z,98212.00
2018-07-07T20:39:55.962Z,98224.00
2018-07-07T20:42:27.641Z,98219.00
2018-07-07T20:44:59.319Z,98225.00
2018-07-07T20:47:31.197Z,98228.00
2018-07-07T20:50:03.029Z,98226.00
2018-07-07T20:52:34.818Z,98221.00
2018-07-07T20:55:06.803Z,98224.00
2018-07-07T20:57:38.765Z,98230.00
2018-07-07T21:00:10.775Z,98225.00
2018-07-07T21:02:42.725Z,98229.00
2018-07-07T21:05:14.707Z,98232.00
2018-07-07T21:07:46.561Z,98236.00
2018-07-07T21:10:18.325Z,98241.00
2018-07-07T21:12:49.989Z,98241.00
2018-07-07T21:15:21.826Z,98243.00
2018-07-07T21:17:53.690Z,98245.00
2018-07-07T21:20:25.464Z,98247.00
2018-07-07T21:22:57.357Z,98242.00
2018-07-07T21:25:29.308Z,98246.00
2018-07-07T21:28:01.114Z,98247.00
2018-07-07T21:30:32.943Z,98253.00
2018-07-07T21:33:27.277Z,98255.00
2018-07-07T21:36:23.846Z,98254.00
2018-07-07T21:39:18.491Z,98256.00
2018-07-07T21:45:13.351Z,98258.00
2018-07-07T21:47:53.850Z,98258.00
2018-07-07T21:50:36.751Z,98252.00
2018-07-07T21:53:22.488Z,98251.00
2018-07-07T21:55:54.935Z,98254.00
2018-07-07T21:58:39.638Z,98253.00
2018-07-07T22:04:52.822Z,98257.00
2018-07-07T22:07:30.450Z,98251.00
2018-07-07T22:10:15.406Z,98250.00
2018-07-07T22:13:02.749Z,98252.00
2018-07-07T22:15:43.996Z,98263.00
2018-07-07T22:18:27.368Z,98270.00
2018-07-07T22:21:18.539Z,98268.00
2018-07-07T22:24:03.025Z,98268.00
2018-07-07T22:26:42.184Z,98267.00
2018-07-07T22:29:15.192Z,98267.00
2018-07-07T22:31:47.017Z,98262.00
2018-07-07T22:34:18.838Z,98259.00
2018-07-07T22:36:50.929Z,98262.00
2018-07-07T22:39:23.158Z,98262.00
2018-07-07T22:41:59.875Z,98269.00
2018-07-07T22:44:31.765Z,98263.00
2018-07-07T22:47:03.672Z,98265.00
2018-07-07T22:49:35.750Z,98272.00
2018-07-07T22:52:08.501Z,98271.00
2018-07-07T22:54:40.287Z,98270.00
2018-07-07T22:57:12.017Z,98268.00
2018-07-07T22:59:43.873Z,98264.00
2018-07-07T23:02:15.684Z,98258.00
2018-07-07T23:04:47.409Z,98261.00
2018-07-07T23:07:19.058Z,98262.00
2018-07-07T23:09:50.944Z,98257.00
2018-07-07T23:12:22.599Z,98264.00
2018-07-07T23:14:54.366Z,98266.00
2018-07-07T23:17:25.834Z,98270.00
2018-07-07T23:19:57.453Z,98266.00
2018-07-07T23:22:45.971Z,98265.00
2018-07-07T23:25:17.821Z,98263.00
2018-07-07T23:27:50.576Z,98268.00
2018-07-07T23:30:22.570Z,98267.00
2018-07-07T23:32:54.507Z,98266.00
2018-07-07T23:35:26.245Z,98275.00
2018-07-07T23:37:58.182Z,98276.00
2018-07-07T23:40:30.001Z,98279.00
2018-07-07T23:43:01.926Z,98278.00
2018-07-07T23:45:33.798Z,98276.00
2018-07-07T23:48:05.739Z,98281.00
2018-07-07T23:50:37.741Z,98279.00
2018-07-07T23:53:09.401Z,98282.00
2018-07-07T23:55:41.223Z,98287.00
2018-07-07T23:58:13.120Z,98288.00
